Time;durP1;ratioP1;P1;durP2;ratioP2;P2;SDS_P1;SDS_P2;PMS_P1;PMS_P2;Temp;Humidity;BMP_temperature;BMP_pressure;BME280_temperature;BME280_humidity;BME280_pressure;Samples;Min_cycle;Max_cycle;Signal;HPM_P1;HPM_P2
2023/01/04 00:04:53;;;;;;;39.50;13.43;;;;;;;6.13;100.00;101454.67;1748184;81;21038;-88
2023/01/04 00:07:20;;;;;;;36.15;14.28;;;;;;;6.10;100.00;101447.59;1749117;81;21535;-89
2023/01/04 00:09:46;;;;;;;32.38;13.98;;;;;;;6.07;100.00;101451.50;1739283;81;21465;-92
2023/01/04 00:12:12;;;;;;;38.63;14.07;;;;;;;6.06;100.00;101453.03;1747366;81;21082;-88
2023/01/04 00:14:38;;;;;;;33.30;12.60;;;;;;;6.02;100.00;101450.47;1747579;81;21003;-88
2023/01/04 00:17:05;;;;;;;34.13;14.03;;;;;;;6.00;100.00;101457.39;1748622;81;20999;-89
2023/01/04 00:19:31;;;;;;;38.02;13.78;;;;;;;5.98;100.00;101451.93;1745463;81;21078;-89
2023/01/04 00:21:58;;;;;;;31.80;13.35;;;;;;;5.97;100.00;101452.94;1740011;81;21099;-87
2023/01/04 00:24:24;;;;;;;29.05;12.33;;;;;;;5.96;100.00;101456.66;1730269;81;21019;-89
2023/01/04 00:26:50;;;;;;;33.00;13.28;;;;;;;5.93;100.00;101460.56;1743933;81;21535;-88
2023/01/04 00:29:16;;;;;;;31.50;13.50;;;;;;;5.89;100.00;101466.82;1747167;81;21070;-89
2023/01/04 00:31:43;;;;;;;33.38;13.28;;;;;;;5.89;100.00;101467.34;1748111;82;21628;-88
2023/01/04 00:37:50;;;;;;;40.23;13.75;;;;;;;5.79;100.00;101468.25;1741833;81;20988;-89
2023/01/04 00:40:17;;;;;;;35.85;13.95;;;;;;;5.73;100.00;101465.07;1746244;81;21065;-89
2023/01/04 00:42:43;;;;;;;42.65;13.58;;;;;;;5.68;100.00;101467.86;1742720;81;20954;-89
2023/01/04 00:45:09;;;;;;;40.48;13.88;;;;;;;5.63;100.00;101464.16;1738957;81;21038;-89
2023/01/04 00:51:17;;;;;;;35.20;13.40;;;;;;;5.49;100.00;101458.48;1745670;81;21496;-89
2023/01/04 00:53:43;;;;;;;33.45;14.07;;;;;;;5.38;100.00;101463.43;1743669;81;20955;-88
2023/01/04 00:56:09;;;;;;;37.28;14.00;;;;;;;5.32;100.00;101460.20;1746937;82;20995;-88
2023/01/04 00:58:36;;;;;;;35.38;13.98;;;;;;;5.30;100.00;101465.47;1744406;81;21077;-89
2023/01/04 01:01:06;;;;;;;40.52;14.73;;;;;;;5.28;100.00;101472.86;1741493;81;21296;-89
2023/01/04 01:03:32;;;;;;;38.02;14.30;;;;;;;5.24;100.00;101462.58;1651421;86;21066;-88
2023/01/04 01:06:04;;;;;;;33.45;13.48;;;;;;;5.22;100.00;101458.45;1653192;85;21098;-88
2023/01/04 01:08:32;;;;;;;40.80;14.70;;;;;;;5.20;100.00;101455.97;1633684;86;21173;-89
2023/01/04 01:14:39;;;;;;;33.98;13.22;;;;;;;5.18;100.00;101458.56;1615311;87;21093;-89
2023/01/04 01:17:06;;;;;;;36.90;14.28;;;;;;;5.16;100.00;101460.09;1599296;88;21198;-89
2023/01/04 01:19:33;;;;;;;32.98;13.05;;;;;;;5.14;100.00;101452.78;1621446;87;21606;-89
2023/01/04 01:21:59;;;;;;;35.95;13.15;;;;;;;5.13;100.00;101452.48;1623824;87;21113;-89
2023/01/04 01:24:26;;;;;;;31.25;12.45;;;;;;;5.14;100.00;101451.95;1619270;87;21130;-90
2023/01/04 01:26:53;;;;;;;31.68;12.70;;;;;;;5.12;100.00;101451.36;1609598;87;21199;-90
2023/01/04 01:29:19;;;;;;;30.75;11.73;;;;;;;5.13;100.00;101457.00;1617281;87;21121;-88
2023/01/04 01:31:46;;;;;;;35.05;13.18;;;;;;;5.12;100.00;101455.37;1616304;88;21006;-89
2023/01/04 01:34:12;;;;;;;34.53;12.50;;;;;;;5.11;100.00;101464.39;1606837;88;21160;-89
2023/01/04 01:36:38;;;;;;;29.75;12.07;;;;;;;5.09;100.00;101461.08;1621295;87;21619;-88
2023/01/04 01:39:06;;;;;;;29.50;11.70;;;;;;;5.06;100.00;101462.34;1615763;87;21941;-90
2023/01/04 01:41:34;;;;;;;31.07;11.57;;;;;;;5.04;100.00;101459.03;1608484;88;21059;-89
2023/01/04 01:44:05;;;;;;;27.95;11.95;;;;;;;5.03;100.00;101459.22;1604779;88;21126;-90
2023/01/04 01:46:48;;;;;;;30.25;12.33;;;;;;;4.99;100.00;101465.48;1614561;87;21197;-89
2023/01/04 01:49:25;;;;;;;28.07;11.03;;;;;;;4.93;100.00;101463.63;1546968;91;21603;-90
2023/01/04 01:51:55;;;;;;;30.02;11.05;;;;;;;4.89;100.00;101462.39;1541158;91;21271;-90
2023/01/04 01:58:04;;;;;;;35.10;11.65;;;;;;;4.78;100.00;101464.59;1547156;91;21157;-90
2023/01/04 02:00:31;;;;;;;28.25;11.60;;;;;;;4.72;100.00;101459.23;1543377;90;21165;-90
2023/01/04 02:03:29;;;;;;;30.43;11.25;;;;;;;4.65;100.00;101453.88;1579512;89;21149;-90
2023/01/04 02:05:58;;;;;;;28.12;11.35;;;;;;;4.60;100.00;101448.82;1583742;89;21189;-89
2023/01/04 02:08:25;;;;;;;26.15;10.88;;;;;;;4.53;100.00;101449.63;1604754;89;21547;-89
2023/01/04 02:10:51;;;;;;;34.05;12.23;;;;;;;4.52;100.00;101455.96;1604293;87;21089;-88
2023/01/04 02:13:23;;;;;;;28.85;11.08;;;;;;;4.50;100.00;101451.84;1602618;88;21645;-89
2023/01/04 02:16:21;;;;;;;28.50;11.40;;;;;;;4.48;100.00;101449.91;1604260;89;21064;-91
2023/01/04 02:18:55;;;;;;;30.80;11.55;;;;;;;4.41;100.00;101451.70;1551682;91;21310;-89
2023/01/04 02:21:42;;;;;;;29.55;10.98;;;;;;;4.38;100.00;101440.91;1478707;96;21192;-90
2023/01/04 02:24:23;;;;;;;25.25;10.30;;;;;;;4.35;100.00;101444.48;1484227;96;21123;-90
2023/01/04 02:27:07;;;;;;;28.05;10.80;;;;;;;4.30;100.00;101445.09;1458491;96;21143;-91
2023/01/04 02:30:27;;;;;;;30.27;10.95;;;;;;;4.26;100.00;101449.16;1464838;96;21096;-89
2023/01/04 02:33:13;;;;;;;26.02;10.55;;;;;;;4.22;100.00;101452.73;1461436;97;21839;-90
2023/01/04 02:35:53;;;;;;;27.98;10.23;;;;;;;4.18;100.00;101447.48;1463336;96;21077;-91
2023/01/04 02:38:46;;;;;;;21.40;9.63;;;;;;;4.11;100.00;101458.61;1444457;98;21174;-89
2023/01/04 02:41:18;;;;;;;22.82;9.48;;;;;;;4.08;100.00;101453.67;1449865;98;21113;-90
2023/01/04 02:50:35;;;;;;;23.45;8.80;;;;;;;3.95;100.00;101454.41;1478258;96;21622;-90
2023/01/04 02:56:34;;;;;;;25.72;9.45;;;;;;;3.89;100.00;101457.86;1463213;97;21150;-90
2023/01/04 02:59:35;;;;;;;28.10;9.58;;;;;;;3.87;100.00;101458.55;1432681;98;21693;-92
2023/01/04 03:08:14;;;;;;;21.97;8.40;;;;;;;3.80;100.00;101464.36;1469020;96;21086;-89
2023/01/04 03:10:48;;;;;;;26.25;9.35;;;;;;;3.78;100.00;101459.20;1475139;97;21132;-89
2023/01/04 03:13:31;;;;;;;20.50;8.15;;;;;;;3.78;100.00;101461.88;1466469;97;21168;-90
2023/01/04 03:16:06;;;;;;;20.55;8.88;;;;;;;3.78;100.00;101462.39;1407792;99;21795;-91
2023/01/04 03:18:37;;;;;;;22.30;8.43;;;;;;;3.75;100.00;101467.59;1408869;100;21129;-90
2023/01/04 03:21:04;;;;;;;19.20;7.80;;;;;;;3.74;100.00;101465.95;1344306;104;21132;-90
2023/01/04 03:35:22;;;;;;;20.05;8.00;;;;;;;3.60;100.00;101477.00;1283208;110;21333;-91
2023/01/04 03:51:26;;;;;;;18.73;6.20;;;;;;;3.33;100.00;101472.45;1313100;107;21805;-87
2023/01/04 03:54:13;;;;;;;20.50;7.10;;;;;;;3.33;100.00;101482.60;1290829;109;21159;-91
2023/01/04 03:56:42;;;;;;;17.87;6.95;;;;;;;3.30;100.00;101485.64;1293043;108;21287;-92
2023/01/04 03:59:10;;;;;;;16.23;7.30;;;;;;;3.29;100.00;101479.16;1292649;109;21838;-87
2023/01/04 04:22:48;;;;;;;24.30;7.17;;;;;;;3.18;100.00;101479.17;1295565;109;21789;-88
2023/01/04 04:25:14;;;;;;;19.15;7.12;;;;;;;3.14;100.00;101484.54;1292718;109;21721;-90
2023/01/04 04:27:40;;;;;;;19.62;7.80;;;;;;;3.09;100.00;101482.46;1301204;108;21334;-90
2023/01/04 04:30:07;;;;;;;17.85;7.12;;;;;;;3.04;100.00;101480.04;1330490;107;21208;-90
2023/01/04 04:32:34;;;;;;;18.05;7.05;;;;;;;3.03;100.00;101481.03;1330295;107;21171;-90
2023/01/04 04:38:41;;;;;;;17.75;7.42;;;;;;;2.96;100.00;101481.78;1380871;102;21674;-90
2023/01/04 04:43:58;;;;;;;19.27;7.20;;;;;;;2.81;100.00;101470.86;1494154;93;20992;-90
2023/01/04 04:50:05;;;;;;;16.42;6.58;;;;;;;2.76;100.00;101482.56;1488984;96;21119;-92
2023/01/04 04:52:31;;;;;;;14.93;6.30;;;;;;;2.70;100.00;101480.96;1565588;87;21031;-90
2023/01/04 04:54:58;;;;;;;17.92;6.80;;;;;;;2.70;100.00;101481.47;1623571;87;21077;-91
2023/01/04 04:57:24;;;;;;;17.12;6.55;;;;;;;2.68;100.00;101479.02;1631816;87;21277;-91
2023/01/04 04:59:50;;;;;;;15.43;5.85;;;;;;;2.68;100.00;101482.19;1627466;87;21019;-90
2023/01/04 05:02:16;;;;;;;17.30;6.42;;;;;;;2.67;100.00;101483.17;1627532;88;21023;-91
2023/01/04 05:04:43;;;;;;;22.15;6.42;;;;;;;2.66;100.00;101474.88;1620079;87;21007;-91
2023/01/04 05:07:09;;;;;;;16.77;6.50;;;;;;;2.65;100.00;101476.72;1622419;88;21019;-89
2023/01/04 05:09:35;;;;;;;15.63;5.95;;;;;;;2.65;100.00;101481.23;1605241;88;21291;-91
2023/01/04 05:14:46;;;;;;;16.40;6.33;;;;;;;2.64;100.00;101480.88;1682939;84;25986;-91
2023/01/04 05:17:16;;;;;;;19.05;6.53;;;;;;;2.62;100.00;101481.59;1687679;85;21086;-91
2023/01/04 05:19:42;;;;;;;19.82;7.00;;;;;;;2.58;100.00;101482.45;1627241;87;21081;-90
2023/01/04 05:22:08;;;;;;;16.55;6.87;;;;;;;2.58;100.00;101485.62;1625353;88;21182;-88
2023/01/04 05:30:50;;;;;;;16.45;6.53;;;;;;;2.52;100.00;101480.53;1625696;87;21000;-91
2023/01/04 05:33:26;;;;;;;18.95;7.35;;;;;;;2.47;100.00;101481.09;1629232;87;21100;-91
2023/01/04 05:35:54;;;;;;;16.15;6.65;;;;;;;2.44;100.00;101485.46;1628343;87;21177;-90
2023/01/04 05:38:21;;;;;;;18.85;6.72;;;;;;;2.43;100.00;101488.29;1629507;87;21068;-91
2023/01/04 05:44:28;;;;;;;19.02;6.58;;;;;;;2.44;100.00;101490.78;1627211;87;21086;-91
2023/01/04 05:46:54;;;;;;;18.12;7.55;;;;;;;2.46;100.00;101492.73;1628531;87;21106;-91
2023/01/04 05:49:21;;;;;;;19.65;6.60;;;;;;;2.49;100.00;101488.88;1663748;84;21244;-91
2023/01/04 05:51:47;;;;;;;22.35;6.83;;;;;;;2.51;100.00;101493.52;1684162;84;21208;-94
2023/01/04 05:54:13;;;;;;;17.48;6.67;;;;;;;2.54;100.00;101493.66;1684320;84;21058;-91
2023/01/04 05:56:39;;;;;;;19.45;7.70;;;;;;;2.58;100.00;101500.25;1686584;83;21386;-90
2023/01/04 05:59:06;;;;;;;15.08;6.50;;;;;;;2.60;100.00;101503.05;1664739;84;21512;-91
2023/01/04 06:01:32;;;;;;;20.35;6.85;;;;;;;2.63;100.00;101505.86;1655813;84;21999;-92
2023/01/04 06:03:58;;;;;;;20.00;7.30;;;;;;;2.64;100.00;101508.31;1688868;83;21606;-92
2023/01/04 06:06:24;;;;;;;22.00;6.87;;;;;;;2.68;100.00;101505.63;1679200;84;21105;-92
2023/01/04 06:08:51;;;;;;;18.02;7.17;;;;;;;2.70;100.00;101506.24;1684253;84;21038;-92
2023/01/04 06:14:57;;;;;;;20.80;6.87;;;;;;;2.79;100.00;101510.14;1683995;84;21152;-92
2023/01/04 06:17:23;;;;;;;19.05;6.72;;;;;;;2.85;100.00;101520.05;1690536;84;21622;-92
2023/01/04 06:19:50;;;;;;;17.77;7.62;;;;;;;2.87;100.00;101520.69;1689911;84;21157;-91
2023/01/04 06:22:16;;;;;;;16.32;7.42;;;;;;;2.90;100.00;101526.97;1699715;80;21070;-91
2023/01/04 06:24:42;;;;;;;18.55;7.15;;;;;;;2.99;100.00;101524.52;1754253;80;21899;-90
2023/01/04 06:30:37;;;;;;;19.05;6.87;;;;;;;3.47;100.00;101533.34;1737520;80;21132;-94
2023/01/04 06:33:04;;;;;;;15.30;6.65;;;;;;;6.00;100.00;101526.09;1734724;81;21036;-91
2023/01/04 06:35:30;;;;;;;14.73;6.60;;;;;;;8.03;100.00;101525.13;1750098;80;21063;-92
2023/01/04 06:37:56;;;;;;;18.60;6.22;;;;;;;9.69;100.00;101527.18;1738342;81;21095;-91
2023/01/04 06:40:22;;;;;;;18.37;5.83;;;;;;;11.40;100.00;101524.70;1741556;81;21212;-94
2023/01/04 06:42:49;;;;;;;13.58;6.12;;;;;;;12.87;100.00;101523.98;1739008;80;21013;-92
2023/01/04 06:45:15;;;;;;;14.43;5.75;;;;;;;14.00;100.00;101520.53;1751478;80;21093;-93
2023/01/04 06:51:23;;;;;;;12.37;5.22;;;;;;;15.84;100.00;101525.86;1719559;82;21507;-92
2023/01/04 06:53:49;;;;;;;9.78;5.03;;;;;;;16.69;100.00;101521.89;1724754;81;21056;-90
2023/01/04 06:56:16;;;;;;;12.13;4.87;;;;;;;16.96;100.00;101516.62;1734248;81;21183;-92
2023/01/04 06:58:42;;;;;;;11.20;4.95;;;;;;;17.19;100.00;101520.59;1729316;81;21065;-91
2023/01/04 07:01:08;;;;;;;12.45;5.47;;;;;;;17.33;100.00;101524.33;1711479;82;21046;-92
2023/01/04 07:03:35;;;;;;;9.73;4.70;;;;;;;17.21;93.17;101530.67;1738212;81;21001;-92
2023/01/04 07:06:05;;;;;;;9.63;5.12;;;;;;;17.69;91.14;101535.78;1737788;81;21130;-91
2023/01/04 07:08:31;;;;;;;8.05;4.80;;;;;;;18.00;83.70;101539.67;1718730;81;21045;-91
2023/01/04 07:10:57;;;;;;;9.08;4.72;;;;;;;17.81;76.98;101534.09;1725977;81;21919;-92
2023/01/04 07:13:24;;;;;;;9.55;5.25;;;;;;;17.91;72.07;101536.74;1747533;81;21016;-91
2023/01/04 07:15:50;;;;;;;10.35;5.20;;;;;;;18.49;70.35;101529.61;1730502;82;21053;-91
2023/01/04 07:18:16;;;;;;;12.13;5.47;;;;;;;19.09;66.52;101527.28;1741135;81;21089;-91
2023/01/04 07:20:43;;;;;;;9.05;4.90;;;;;;;19.61;66.04;101528.69;1722654;81;21085;-92
2023/01/04 07:23:09;;;;;;;13.00;4.83;;;;;;;19.26;57.62;101529.48;1704698;82;21423;-91
2023/01/04 07:25:36;;;;;;;9.30;4.85;;;;;;;18.75;58.11;101532.34;1722098;82;21508;-89
2023/01/04 07:28:03;;;;;;;11.80;5.35;;;;;;;18.39;57.54;101525.09;1725542;81;21013;-89
2023/01/04 07:30:29;;;;;;;12.30;5.15;;;;;;;18.56;57.47;101540.46;1716767;81;21294;-89
2023/01/04 07:32:56;;;;;;;10.18;5.47;;;;;;;18.99;55.14;101535.03;1721310;82;21013;-89
2023/01/04 07:35:23;;;;;;;10.25;5.22;;;;;;;19.13;55.52;101537.06;1706087;81;21032;-88
2023/01/04 07:37:50;;;;;;;10.63;5.35;;;;;;;18.41;52.46;101546.62;1727389;81;20989;-87
2023/01/04 07:40:17;;;;;;;9.35;4.90;;;;;;;18.00;54.24;101542.39;1697445;81;21064;-89
2023/01/04 07:42:43;;;;;;;9.03;4.62;;;;;;;17.97;54.31;101544.86;1734496;81;21055;-89
2023/01/04 07:45:10;;;;;;;7.08;4.00;;;;;;;18.51;53.81;101537.78;1733925;81;21125;-87
2023/01/04 07:47:36;;;;;;;9.08;4.42;;;;;;;18.66;51.41;101538.71;1738040;82;21548;-88
2023/01/04 07:50:02;;;;;;;8.78;4.30;;;;;;;18.94;51.68;101535.13;1739275;81;21485;-88
2023/01/04 07:56:09;;;;;;;8.43;4.50;;;;;;;20.68;50.30;101537.78;1731215;80;21056;-90
2023/01/04 08:02:16;;;;;;;7.03;4.20;;;;;;;22.49;46.51;101553.27;1712276;82;21112;-90
2023/01/04 08:04:42;;;;;;;6.65;4.00;;;;;;;22.63;44.90;101548.48;1743469;82;21067;-89
2023/01/04 08:07:09;;;;;;;7.25;3.60;;;;;;;23.12;45.96;101545.16;1736551;81;21052;-86
2023/01/04 08:09:35;;;;;;;6.92;3.85;;;;;;;24.14;44.86;101545.17;1726159;81;21656;-87
2023/01/04 08:12:01;;;;;;;6.45;3.67;;;;;;;24.85;42.72;101551.45;1723281;81;21048;-89
2023/01/04 08:14:28;;;;;;;5.47;3.72;;;;;;;24.95;40.55;101550.27;1747303;82;21016;-90
2023/01/04 08:16:54;;;;;;;5.42;3.58;;;;;;;25.39;38.40;101542.52;1721962;81;20993;-88
2023/01/04 08:23:01;;;;;;;5.35;3.55;;;;;;;25.61;39.12;101549.05;1734571;81;21104;-90
2023/01/04 08:29:08;;;;;;;6.80;3.58;;;;;;;24.99;37.38;101546.27;1725609;81;21012;-91
2023/01/04 08:31:35;;;;;;;5.20;2.98;;;;;;;22.36;37.52;101545.95;1716277;82;21129;-91
2023/01/04 08:34:06;;;;;;;5.92;3.40;;;;;;;20.50;37.14;101543.59;1722021;82;21102;-89
2023/01/04 08:36:45;;;;;;;4.20;2.70;;;;;;;18.33;39.20;101542.06;1739811;82;21836;-89
2023/01/04 08:39:11;;;;;;;4.92;2.70;;;;;;;16.36;40.82;101549.20;1715059;82;21003;-89
2023/01/04 08:41:51;;;;;;;8.05;2.55;;;;;;;14.87;42.24;101549.52;1722732;82;21035;-91
2023/01/04 08:44:21;;;;;;;6.45;2.90;;;;;;;13.77;43.45;101550.14;1728302;82;21104;-94
2023/01/04 08:46:48;;;;;;;5.70;2.62;;;;;;;12.49;45.52;101550.52;1668910;83;21101;-91
2023/01/04 08:49:15;;;;;;;7.10;2.85;;;;;;;11.75;47.03;101559.61;1672980;83;21139;-90
2023/01/04 08:51:42;;;;;;;8.25;3.17;;;;;;;11.01;48.84;101555.53;1683094;82;21499;-90
2023/01/04 08:54:09;;;;;;;4.45;2.37;;;;;;;10.25;50.51;101558.69;1686710;83;21054;-90
2023/01/04 08:56:39;;;;;;;9.70;2.87;;;;;;;9.88;51.81;101553.52;1680362;83;21567;-90
2023/01/04 08:59:06;;;;;;;5.78;2.70;;;;;;;9.07;55.58;101552.16;1689860;83;21043;-90
2023/01/04 09:01:34;;;;;;;8.28;2.55;;;;;;;9.07;55.58;101552.16;1672168;83;21287;-90
2023/01/04 09:04:01;;;;;;;8.03;2.95;;;;;;;8.83;56.25;101549.87;1681639;84;21305;-91
2023/01/04 09:06:27;;;;;;;6.83;2.85;;;;;;;8.59;58.27;101551.06;1668462;84;21082;-93
2023/01/04 09:08:56;;;;;;;8.58;2.25;;;;;;;8.27;61.39;101546.28;1675796;85;21067;-90
2023/01/04 09:11:23;;;;;;;6.95;2.35;;;;;;;7.98;63.38;101543.73;1671635;84;21508;-91
2023/01/04 09:13:55;;;;;;;8.48;2.17;;;;;;;7.78;66.58;101545.23;1687107;83;21216;-91
2023/01/04 09:16:22;;;;;;;6.53;2.50;;;;;;;7.54;70.85;101543.34;1596541;88;21672;-88
2023/01/04 09:18:49;;;;;;;6.67;2.50;;;;;;;7.41;72.63;101543.73;1590286;88;21601;-88
2023/01/04 09:21:19;;;;;;;8.08;2.40;;;;;;;7.26;75.29;101540.48;1587120;88;21617;-88
2023/01/04 09:23:46;;;;;;;5.37;2.60;;;;;;;7.22;78.04;101544.64;1597679;88;21119;-89
2023/01/04 09:26:22;;;;;;;6.12;2.30;;;;;;;7.05;84.58;101543.78;1588907;88;21114;-88
2023/01/04 09:28:51;;;;;;;5.47;2.20;;;;;;;6.98;83.16;101537.64;1593142;88;21081;-88
2023/01/04 09:31:21;;;;;;;7.17;2.30;;;;;;;6.93;85.43;101529.93;1586838;89;21105;-94
2023/01/04 09:37:28;;;;;;;12.82;2.90;;;;;;;6.79;93.09;101529.99;1586173;88;21573;-91
2023/01/04 09:39:54;;;;;;;6.92;2.45;;;;;;;6.65;91.28;101522.19;1582266;89;21162;-90
2023/01/04 09:42:29;;;;;;;7.35;2.55;;;;;;;6.56;97.48;101522.44;1589025;89;21092;-89
2023/01/04 09:45:00;;;;;;;8.70;2.55;;;;;;;6.54;93.84;101514.30;1629246;86;21576;-90
2023/01/04 09:47:44;;;;;;;6.53;2.02;;;;;;;6.47;96.50;101517.00;1623695;87;21055;-90
2023/01/04 09:50:24;;;;;;;5.70;2.47;;;;;;;6.42;100.00;101514.64;1619433;88;21631;-91
2023/01/04 09:53:11;;;;;;;6.12;2.25;;;;;;;6.29;100.00;101517.63;1618231;88;21138;-91
2023/01/04 09:55:49;;;;;;;4.62;2.17;;;;;;;6.29;100.00;101512.27;1618584;88;21074;-89
2023/01/04 09:58:30;;;;;;;5.58;2.00;;;;;;;6.34;100.00;101503.63;1618349;88;21543;-90
2023/01/04 10:01:06;;;;;;;3.55;1.92;;;;;;;6.40;100.00;101501.97;1567631;91;21562;-90
2023/01/04 10:03:51;;;;;;;4.78;1.82;;;;;;;6.39;100.00;101509.71;1568091;90;21251;-90
2023/01/04 10:06:19;;;;;;;5.00;2.37;;;;;;;6.36;100.00;101512.28;1565833;90;21225;-89
2023/01/04 10:08:45;;;;;;;7.72;2.45;;;;;;;6.34;100.00;101507.64;1567324;91;21055;-90
2023/01/04 10:11:59;;;;;;;2.98;2.10;;;;;;;6.37;100.00;101508.56;1567219;91;21614;-91
2023/01/04 10:14:42;;;;;;;3.47;1.80;;;;;;;6.36;100.00;101513.62;1582420;89;21121;-90
2023/01/04 10:17:19;;;;;;;3.55;1.62;;;;;;;6.24;100.00;101509.42;1595319;89;21070;-88
2023/01/04 10:20:17;;;;;;;3.92;1.70;;;;;;;6.24;100.00;101505.93;1588944;89;22051;-88
2023/01/04 10:23:10;;;;;;;3.47;1.70;;;;;;;6.26;100.00;101511.87;1552532;90;21133;-89
2023/01/04 10:25:56;;;;;;;4.90;1.95;;;;;;;6.29;100.00;101511.45;1560871;90;21085;-88
2023/01/04 10:28:54;;;;;;;3.20;1.72;;;;;;;6.31;100.00;101506.73;1545618;92;21108;-87
2023/01/04 10:35:18;;;;;;;4.12;1.70;;;;;;;6.18;100.00;101510.75;1545038;92;21193;-87
2023/01/04 10:37:47;;;;;;;5.70;1.90;;;;;;;6.12;100.00;101499.05;1553511;91;21098;-87
2023/01/04 10:40:16;;;;;;;4.55;1.60;;;;;;;6.10;100.00;101507.27;1548299;91;21162;-87
2023/01/04 10:42:59;;;;;;;4.10;1.55;;;;;;;6.16;100.00;101511.49;1540834;91;21074;-87
2023/01/04 10:45:36;;;;;;;3.05;1.62;;;;;;;6.25;100.00;101509.72;1546448;92;21100;-86
2023/01/04 10:48:34;;;;;;;3.65;1.80;;;;;;;6.33;100.00;101507.35;1555378;91;21896;-87
2023/01/04 10:51:03;;;;;;;4.87;1.70;;;;;;;6.37;100.00;101517.94;1514420;94;21074;-86
2023/01/04 10:53:50;;;;;;;3.62;1.70;;;;;;;6.43;100.00;101509.06;1511961;94;21182;-86
2023/01/04 10:56:30;;;;;;;3.10;1.60;;;;;;;6.38;100.00;101496.81;1513658;94;21646;-86
2023/01/04 10:59:10;;;;;;;12.70;2.00;;;;;;;6.40;100.00;101503.31;1514313;94;21590;-87
2023/01/04 11:02:10;;;;;;;3.40;1.60;;;;;;;6.49;100.00;101501.53;1414691;99;21198;-86
2023/01/04 11:04:46;;;;;;;4.80;1.65;;;;;;;6.50;100.00;101507.21;1348674;105;21249;-86
2023/01/04 11:07:26;;;;;;;4.05;1.75;;;;;;;6.46;100.00;101508.64;1350422;105;21150;-86
2023/01/04 11:13:34;;;;;;;4.12;1.92;;;;;;;6.51;100.00;101504.02;1348759;105;21678;-86
2023/01/04 11:16:03;;;;;;;4.05;1.60;;;;;;;6.59;100.00;101508.63;1357770;104;21241;-85
2023/01/04 11:18:32;;;;;;;7.78;1.80;;;;;;;6.65;100.00;101507.45;1361517;104;21115;-86
2023/01/04 11:21:02;;;;;;;3.40;1.82;;;;;;;6.61;100.00;101509.73;1368182;104;21850;-86
2023/01/04 11:23:28;;;;;;;7.40;1.67;;;;;;;6.64;100.00;101510.66;1347802;105;21659;-87
2023/01/04 11:26:20;;;;;;;3.33;1.45;;;;;;;6.67;100.00;101510.75;1383002;102;21171;-85
2023/01/04 11:28:54;;;;;;;2.92;1.60;;;;;;;6.66;100.00;101518.49;1463157;97;21190;-85
2023/01/04 11:31:52;;;;;;;4.70;1.65;;;;;;;6.69;100.00;101506.83;1441083;98;21198;-86
2023/01/04 11:34:18;;;;;;;3.33;1.60;;;;;;;6.73;100.00;101514.73;1441844;99;21158;-87
2023/01/04 11:36:47;;;;;;;3.92;1.45;;;;;;;6.71;100.00;101518.17;1441206;98;21067;-86
2023/01/04 11:39:23;;;;;;;12.80;2.02;;;;;;;6.69;100.00;101516.73;1512370;90;21727;-86
2023/01/04 11:42:05;;;;;;;2.42;1.37;;;;;;;6.66;100.00;101520.65;1615912;84;21263;-86
2023/01/04 11:44:34;;;;;;;5.28;2.02;;;;;;;6.55;100.00;101508.72;1656288;84;21073;-87
2023/01/04 11:47:23;;;;;;;5.45;1.70;;;;;;;6.51;100.00;101505.35;1686789;84;21207;-87
2023/01/04 11:49:49;;;;;;;5.95;2.10;;;;;;;6.50;100.00;101500.52;1677066;84;21026;-88
2023/01/04 11:56:22;;;;;;;3.72;1.40;;;;;;;6.54;100.00;101511.63;1667383;84;21047;-87
2023/01/04 11:59:16;;;;;;;2.98;1.47;;;;;;;6.57;100.00;101506.66;1679168;84;21029;-87
2023/01/04 12:01:46;;;;;;;4.25;1.75;;;;;;;6.55;100.00;101511.92;1670910;84;21546;-87
2023/01/04 12:04:22;;;;;;;2.87;1.62;;;;;;;6.52;100.00;101515.83;1681124;84;21191;-86
2023/01/04 12:07:16;;;;;;;5.47;1.42;;;;;;;6.47;100.00;101514.81;1611049;86;21089;-87
2023/01/04 12:09:42;;;;;;;3.33;1.50;;;;;;;6.42;100.00;101525.36;1547091;92;21555;-86
2023/01/04 12:12:11;;;;;;;4.03;1.77;;;;;;;6.37;100.00;101525.97;1548468;92;21058;-87
2023/01/04 12:14:44;;;;;;;3.27;1.60;;;;;;;6.32;100.00;101519.92;1547117;92;21260;-88
2023/01/04 12:17:28;;;;;;;4.70;1.55;;;;;;;6.26;100.00;101523.40;1546921;92;21074;-87
2023/01/04 12:19:56;;;;;;;3.45;1.60;;;;;;;6.23;100.00;101529.17;1545470;92;21197;-88
2023/01/04 12:22:39;;;;;;;3.30;1.70;;;;;;;6.20;100.00;101522.89;1548850;92;21207;-87
2023/01/04 12:25:28;;;;;;;2.95;1.55;;;;;;;6.20;100.00;101523.42;1527608;92;21177;-87
2023/01/04 12:27:55;;;;;;;5.53;2.02;;;;;;;6.13;100.00;101528.78;1539742;91;21103;-86
2023/01/04 12:30:43;;;;;;;9.35;1.87;;;;;;;6.12;100.00;101531.16;1549551;91;21121;-87
2023/01/04 12:33:31;;;;;;;4.15;1.50;;;;;;;6.11;100.00;101535.66;1562901;91;21133;-88
2023/01/04 12:36:08;;;;;;;5.25;1.52;;;;;;;6.04;100.00;101531.36;1559175;90;22219;-88
2023/01/04 12:39:01;;;;;;;3.33;1.32;;;;;;;5.91;100.00;101532.14;1558890;90;21016;-87
2023/01/04 12:41:38;;;;;;;3.40;1.42;;;;;;;5.83;100.00;101547.89;1483628;94;21691;-87
2023/01/04 12:44:50;;;;;;;2.60;1.05;;;;;;;5.76;100.00;101558.27;1502980;92;21108;-88
2023/01/04 12:53:59;;;;;;;1.77;0.98;;;;;;;5.52;100.00;101561.82;1526663;92;21161;-86
2023/01/04 12:57:09;;;;;;;2.25;1.12;;;;;;;5.50;100.00;101557.70;1508271;93;21590;-87
2023/01/04 12:59:39;;;;;;;2.08;0.80;;;;;;;5.42;100.00;101549.38;1508584;93;21394;-87
2023/01/04 13:02:28;;;;;;;2.08;1.15;;;;;;;5.34;100.00;101546.36;1515447;93;21019;-87
2023/01/04 13:04:58;;;;;;;2.65;1.30;;;;;;;5.32;100.00;101543.05;1510425;92;21176;-87
2023/01/04 13:07:45;;;;;;;1.98;1.05;;;;;;;5.34;100.00;101543.69;1548544;90;21140;-87
2023/01/04 13:10:36;;;;;;;3.22;1.20;;;;;;;5.34;100.00;101558.38;1582032;89;21053;-87
2023/01/04 13:17:09;;;;;;;2.25;0.93;;;;;;;5.34;100.00;101557.05;1579202;90;21078;-87
2023/01/04 13:19:37;;;;;;;3.40;1.22;;;;;;;5.31;100.00;101560.13;1652950;85;21151;-87
2023/01/04 13:22:12;;;;;;;0.90;0.62;;;;;;;5.28;100.00;101559.19;1673396;85;21121;-87
2023/01/04 13:24:42;;;;;;;6.17;1.30;;;;;;;5.26;100.00;101565.23;1664261;85;21047;-88
2023/01/04 13:27:21;;;;;;;3.15;0.80;;;;;;;5.23;100.00;101561.63;1668193;85;21627;-93
2023/01/04 13:29:50;;;;;;;2.60;1.10;;;;;;;5.22;100.00;101564.00;1665797;85;21764;-87
2023/01/04 13:32:29;;;;;;;2.10;1.00;;;;;;;5.21;100.00;101555.69;1671625;85;21174;-87
2023/01/04 13:38:24;;;;;;;3.42;1.10;;;;;;;5.19;100.00;101561.73;1667270;85;21143;-87
2023/01/04 13:40:51;;;;;;;2.22;1.20;;;;;;;5.14;100.00;101551.63;1674385;85;21023;-91
2023/01/04 13:43:55;;;;;;;2.60;1.45;;;;;;;5.10;100.00;101553.59;1666950;85;21085;-87
2023/01/04 13:46:26;;;;;;;3.15;1.50;;;;;;;5.09;100.00;101546.09;1644367;86;21219;-86
2023/01/04 13:48:57;;;;;;;4.60;1.55;;;;;;;5.06;100.00;101547.83;1652076;86;21101;-87
2023/01/04 13:51:33;;;;;;;5.75;1.60;;;;;;;5.04;100.00;101549.05;1646549;86;21096;-87
2023/01/04 13:54:01;;;;;;;4.20;1.47;;;;;;;5.05;100.00;101549.34;1678765;83;21133;-87
2023/01/04 13:56:31;;;;;;;4.15;1.90;;;;;;;5.03;100.00;101551.38;1693487;82;21038;-91
2023/01/04 13:58:57;;;;;;;5.40;1.20;;;;;;;5.01;100.00;101560.94;1726088;82;21112;-90
2023/01/04 14:01:46;;;;;;;2.60;1.30;;;;;;;4.93;100.00;101553.09;1711677;83;21151;-88
2023/01/04 14:04:18;;;;;;;4.25;1.65;;;;;;;4.92;100.00;101553.61;1699244;83;21542;-90
2023/01/04 14:10:25;;;;;;;18.25;6.78;;;;;;;4.86;100.00;101558.41;1624235;86;21567;-87
2023/01/04 14:12:51;;;;;;;7.58;1.90;;;;;;;4.77;100.00;101555.59;1626161;86;21845;-88
2023/01/04 14:15:24;;;;;;;5.33;2.00;;;;;;;4.76;100.00;101562.79;1622012;87;21544;-87
2023/01/04 14:17:53;;;;;;;3.85;1.47;;;;;;;4.71;100.00;101562.55;1627631;85;26577;-88
2023/01/04 14:20:25;;;;;;;2.67;1.50;;;;;;;4.70;100.00;101562.73;1633673;85;21165;-88
2023/01/04 14:22:57;;;;;;;2.72;1.30;;;;;;;4.67;100.00;101563.13;1647056;86;21072;-88
2023/01/04 14:25:48;;;;;;;4.30;1.52;;;;;;;4.67;100.00;101567.95;1635114;85;21264;-88